createdAt,value
2018-09-02T00:00:33.912Z,97450.11
2018-09-02T00:03:04.445Z,97446.81
2018-09-02T00:05:33.654Z,97446.86
2018-09-02T00:08:02.768Z,97446.55
2018-09-02T00:10:34.029Z,97439.75
2018-09-02T00:13:05.026Z,97436.39
2018-09-02T00:15:34.479Z,97439.25
2018-09-02T00:18:04.252Z,97438.71
2018-09-02T00:20:33.993Z,97442.13
2018-09-02T00:23:03.079Z,97439.84
2018-09-02T00:25:32.395Z,97441.29
2018-09-02T00:28:02.821Z,97455.37
2018-09-02T00:30:31.798Z,97429.25
2018-09-02T00:33:00.760Z,97430.54
2018-09-02T00:35:29.776Z,97438.57
2018-09-02T00:37:59.182Z,97436.17
2018-09-02T00:40:28.130Z,97443.66
2018-09-02T00:42:57.072Z,97445.95
2018-09-02T00:45:26.142Z,97454.70
2018-09-02T00:47:55.095Z,97449.58
2018-09-02T00:50:24.028Z,97450.63
2018-09-02T00:52:53.089Z,97443.06
2018-09-02T00:55:22.185Z,97434.63
2018-09-02T00:57:59.920Z,97439.51
2018-09-02T01:00:28.895Z,97435.44
2018-09-02T01:02:57.860Z,97433.83
2018-09-02T01:05:27.195Z,97432.47
2018-09-02T01:07:57.702Z,97430.30
2018-09-02T01:10:28.762Z,97424.34
2018-09-02T01:12:58.544Z,97421.89
2018-09-02T01:15:28.547Z,97418.80
2018-09-02T01:17:58.271Z,97425.00
2018-09-02T01:20:28.789Z,97425.14
2018-09-02T01:25:51.137Z,97425.53
2018-09-02T01:28:20.081Z,97421.28
2018-09-02T01:30:49.016Z,97423.05
2018-09-02T01:33:18.019Z,97422.84
2018-09-02T01:35:47.191Z,97423.97
2018-09-02T01:38:25.719Z,97403.56
2018-09-02T01:40:56.347Z,97417.45
2018-09-02T01:43:27.067Z,97421.63
2018-09-02T01:45:56.173Z,97416.66
2018-09-02T01:48:25.148Z,97424.77
2018-09-02T01:50:54.096Z,97434.48
2018-09-02T01:53:23.111Z,97430.94
2018-09-02T01:55:52.173Z,97434.16
2018-09-02T01:58:21.172Z,97436.38
2018-09-02T02:00:53.538Z,97438.48
2018-09-02T02:20:22.143Z,97425.41
2018-09-02T02:22:51.183Z,97425.97
2018-09-02T02:25:20.121Z,97433.83
2018-09-02T02:27:49.088Z,97424.90
2018-09-02T02:30:18.359Z,97425.42
2018-09-02T02:32:47.618Z,97425.45
2018-09-02T02:35:19.487Z,97422.17
2018-09-02T02:37:48.611Z,97427.08
2018-09-02T02:40:19.779Z,97428.96
2018-09-02T02:42:48.885Z,97422.45
2018-09-02T02:45:20.138Z,97424.63
2018-09-02T02:47:52.131Z,97423.53
2018-09-02T02:50:21.081Z,97420.27
2018-09-02T02:52:55.015Z,97428.15
2018-09-02T02:55:24.839Z,97425.72
2018-09-02T02:58:04.491Z,97426.78
2018-09-02T03:00:34.447Z,97423.80
2018-09-02T03:03:05.373Z,97427.81
2018-09-02T03:05:34.955Z,97422.94
2018-09-02T03:08:11.383Z,97428.37
2018-09-02T03:10:42.600Z,97425.91
2018-09-02T03:13:13.534Z,97424.00
2018-09-02T03:15:47.938Z,97418.56
2018-09-02T03:18:17.054Z,97419.93
2018-09-02T03:20:46.992Z,97430.24
2018-09-02T03:23:17.089Z,97427.29
2018-09-02T03:25:46.296Z,97434.05
2018-09-02T03:28:15.285Z,97435.95
2018-09-02T03:30:44.353Z,97433.77
2018-09-02T03:33:13.299Z,97431.09
2018-09-02T03:35:46.364Z,97428.95
2018-09-02T03:38:15.336Z,97429.22
2018-09-02T03:40:44.427Z,97428.12
2018-09-02T03:43:13.412Z,97426.16
2018-09-02T03:45:42.556Z,97432.18
2018-09-02T03:48:11.559Z,97432.20
2018-09-02T03:50:41.172Z,97430.20
2018-09-02T03:53:10.345Z,97436.23
2018-09-02T03:55:39.711Z,97432.48
2018-09-02T03:58:08.686Z,97418.11
2018-09-02T04:00:37.744Z,97421.28
2018-09-02T04:16:59.699Z,97407.28
2018-09-02T04:19:28.602Z,97409.97
2018-09-02T04:21:57.478Z,97408.09
2018-09-02T04:24:26.493Z,97406.19
2018-09-02T04:26:55.764Z,97412.70
2018-09-02T04:29:24.699Z,97413.77
2018-09-02T04:31:53.629Z,97414.05
2018-09-02T04:34:29.341Z,97416.75
2018-09-02T04:36:58.394Z,97413.23
2018-09-02T04:39:27.339Z,97417.03
2018-09-02T04:41:56.391Z,97417.84
2018-09-02T04:44:25.450Z,97422.44
2018-09-02T04:46:55.067Z,97427.33
2018-09-02T04:49:25.070Z,97429.52
2018-09-02T04:51:54.112Z,97434.66
2018-09-02T04:54:23.169Z,97443.05
2018-09-02T04:56:52.083Z,97434.66
2018-09-02T04:59:21.139Z,97447.11
2018-09-02T05:01:50.160Z,97450.38
2018-09-02T05:04:19.086Z,97447.95
2018-09-02T05:06:49.162Z,97452.81
2018-09-02T05:09:18.540Z,97450.33
2018-09-02T05:11:47.664Z,97446.72
2018-09-02T05:14:16.713Z,97451.18
2018-09-02T05:16:48.160Z,97449.67
2018-09-02T05:19:17.147Z,97453.23
2018-09-02T05:21:46.247Z,97449.16
2018-09-02T05:24:15.463Z,97448.41
2018-09-02T05:26:44.423Z,97446.03
2018-09-02T05:29:13.407Z,97450.00
2018-09-02T05:31:42.363Z,97448.06
2018-09-02T05:34:11.363Z,97445.56
2018-09-02T05:36:40.408Z,97435.89
2018-09-02T05:39:10.803Z,97442.17
2018-09-02T05:41:40.082Z,97443.37
2018-09-02T05:44:10.160Z,97442.21
2018-09-02T05:46:39.726Z,97441.59
2018-09-02T05:49:08.998Z,97446.36
2018-09-02T05:51:37.949Z,97447.75
2018-09-02T05:54:06.488Z,97453.96
2018-09-02T05:56:35.513Z,97451.48
2018-09-02T05:59:04.531Z,97452.34
2018-09-02T06:01:33.538Z,97457.05
2018-09-02T06:04:02.655Z,97448.70
2018-09-02T06:06:31.691Z,97451.95
2018-09-02T06:09:00.749Z,97458.93
2018-09-02T06:11:29.757Z,97466.55
2018-09-02T06:13:58.702Z,97460.31
2018-09-02T06:16:28.800Z,97463.91
2018-09-02T06:18:57.836Z,97462.64
2018-09-02T06:21:27.031Z,97463.48
2018-09-02T06:23:57.512Z,97465.88
2018-09-02T06:26:26.582Z,97459.65
2018-09-02T06:28:55.651Z,97464.84
2018-09-02T06:31:24.963Z,97470.09
2018-09-02T06:33:54.057Z,97468.05
2018-09-02T06:36:24.743Z,97463.31
2018-09-02T06:38:53.698Z,97461.03
2018-09-02T06:41:22.678Z,97457.37
2018-09-02T06:43:51.639Z,97452.57
2018-09-02T06:46:23.545Z,97439.86
2018-09-02T06:48:53.082Z,97439.84
2018-09-02T06:51:22.021Z,97431.77
2018-09-02T06:53:50.982Z,97439.37
2018-09-02T06:56:19.942Z,97433.14
2018-09-02T06:58:49.054Z,97433.80
2018-09-02T07:01:19.275Z,97435.86
2018-09-02T07:03:48.399Z,97436.83
2018-09-02T07:06:17.406Z,97442.73
2018-09-02T07:08:46.524Z,97445.58
2018-09-02T07:11:15.523Z,97445.81
2018-09-02T07:13:44.550Z,97438.46
2018-09-02T07:16:13.577Z,97436.62
2018-09-02T07:18:42.502Z,97438.08
2018-09-02T07:21:11.537Z,97436.95
2018-09-02T07:23:40.504Z,97424.56
2018-09-02T07:26:10.182Z,97427.12
2018-09-02T07:28:39.972Z,97429.45
2018-09-02T07:31:22.443Z,97438.17
2018-09-02T07:33:51.811Z,97431.34
2018-09-02T07:36:20.980Z,97432.95
2018-09-02T07:38:50.056Z,97440.47
2018-09-02T07:41:19.263Z,97439.86
2018-09-02T07:43:48.515Z,97436.86
2018-09-02T07:46:17.561Z,97437.52
2018-09-02T07:48:46.713Z,97445.80
2018-09-02T07:51:16.946Z,97444.55
2018-09-02T07:53:45.900Z,97447.30
2018-09-02T07:56:15.205Z,97452.53
2018-09-02T07:58:44.374Z,97449.52
2018-09-02T08:01:13.365Z,97452.93
2018-09-02T08:03:42.644Z,97460.30
2018-09-02T08:06:11.669Z,97456.40
2018-09-02T08:08:40.754Z,97476.08
2018-09-02T08:11:09.788Z,97467.53
2018-09-02T08:13:38.804Z,97464.09
2018-09-02T08:16:08.977Z,97470.17
2018-09-02T08:18:38.356Z,97462.66
2018-09-02T08:21:09.600Z,97461.91
2018-09-02T08:24:00.976Z,97454.59
2018-09-02T08:26:29.901Z,97473.66
2018-09-02T08:28:58.974Z,97469.78
2018-09-02T08:31:30.538Z,97464.27
2018-09-02T08:55:26.740Z,97484.11
2018-09-02T08:57:55.749Z,97486.61
2018-09-02T09:00:24.848Z,97482.83
2018-09-02T09:02:54.478Z,97467.12
2018-09-02T09:05:23.440Z,97469.01
2018-09-02T09:07:52.668Z,97467.50
2018-09-02T09:10:21.515Z,97477.48
2018-09-02T09:12:50.411Z,97457.41
2018-09-02T09:15:20.278Z,97463.94
2018-09-02T09:17:49.216Z,97468.15
2018-09-02T09:20:21.071Z,97466.55
2018-09-02T09:22:50.101Z,97464.45
2018-09-02T09:25:19.498Z,97460.41
2018-09-02T09:27:48.491Z,97459.02
2018-09-02T09:30:17.493Z,97458.91
2018-09-02T09:32:46.401Z,97455.73
2018-09-02T09:35:18.582Z,97458.05
2018-09-02T09:37:47.844Z,97458.01
2018-09-02T09:40:19.807Z,97458.20
2018-09-02T09:42:48.749Z,97447.95
2018-09-02T09:45:17.669Z,97447.31
2018-09-02T09:47:46.629Z,97460.81
2018-09-02T09:50:15.582Z,97464.61
2018-09-02T09:53:00.019Z,97466.35
2018-09-02T09:55:29.115Z,97468.91
2018-09-02T09:57:58.491Z,97464.53
2018-09-02T10:00:32.840Z,97471.50
2018-09-02T10:03:03.309Z,97463.10
2018-09-02T10:05:32.480Z,97463.06
2018-09-02T10:08:01.581Z,97462.02
2018-09-02T10:10:30.735Z,97454.00
2018-09-02T10:12:59.934Z,97454.06
2018-09-02T10:15:29.023Z,97449.37
2018-09-02T10:17:58.305Z,97452.80
2018-09-02T10:20:27.340Z,97437.38
2018-09-02T10:22:56.706Z,97439.24
2018-09-02T10:25:25.821Z,97441.17
2018-09-02T10:27:55.012Z,97441.22
2018-09-02T10:30:24.092Z,97443.58
2018-09-02T10:32:53.108Z,97438.20
2018-09-02T10:35:22.702Z,97436.33
2018-09-02T10:37:52.844Z,97443.61
2018-09-02T10:40:25.699Z,97443.19
2018-09-02T10:42:54.633Z,97438.72
2018-09-02T10:45:23.654Z,97427.26
2018-09-02T10:47:53.589Z,97440.08
2018-09-02T10:50:22.610Z,97454.88
2018-09-02T10:52:53.274Z,97454.33
2018-09-02T10:55:22.371Z,97448.68
2018-09-02T10:57:52.002Z,97444.52
2018-09-02T11:00:23.904Z,97441.03
2018-09-02T11:02:52.813Z,97454.59
2018-09-02T11:05:24.476Z,97456.97
2018-09-02T11:07:53.572Z,97456.42
2018-09-02T11:10:23.502Z,97454.42
2018-09-02T11:12:52.451Z,97446.96
2018-09-02T11:15:21.924Z,97445.89
2018-09-02T11:17:51.618Z,97446.39
2018-09-02T11:20:21.265Z,97450.19
2018-09-02T11:22:50.692Z,97462.23
2018-09-02T11:25:20.298Z,97459.12
2018-09-02T11:27:49.792Z,97460.06
2018-09-02T11:30:20.948Z,97454.09
2018-09-02T11:32:50.687Z,97452.81
2018-09-02T11:35:20.999Z,97460.00
2018-09-02T11:37:50.439Z,97453.85
2018-09-02T11:40:21.582Z,97447.91
2018-09-02T11:42:51.175Z,97443.66
2018-09-02T11:45:20.781Z,97428.48
2018-09-02T11:47:50.462Z,97422.14
2018-09-02T11:50:19.716Z,97416.43
2018-09-02T11:52:49.096Z,97417.05
2018-09-02T11:55:20.296Z,97414.69
2018-09-02T11:57:50.090Z,97416.89
2018-09-02T12:00:21.297Z,97416.97
2018-09-02T12:02:51.045Z,97419.38
2018-09-02T12:05:21.643Z,97412.34
2018-09-02T12:07:51.544Z,97409.36
2018-09-02T12:10:21.890Z,97407.49
2018-09-02T12:12:51.081Z,97410.72
2018-09-02T12:15:21.491Z,97409.08
2018-09-02T12:17:51.431Z,97409.43
2018-09-02T12:20:22.607Z,97419.88
2018-09-02T12:22:52.397Z,97415.13
2018-09-02T12:25:28.678Z,97409.36
2018-09-02T12:27:57.863Z,97406.06
2018-09-02T12:30:26.899Z,97406.59
2018-09-02T12:32:56.103Z,97402.19
2018-09-02T12:35:25.087Z,97411.50
2018-09-02T12:37:54.427Z,97405.21
2018-09-02T12:40:23.366Z,97407.15
2018-09-02T12:42:53.367Z,97416.74
2018-09-02T12:45:23.003Z,97405.41
2018-09-02T12:47:52.102Z,97405.69
2018-09-02T12:50:21.075Z,97409.91
2018-09-02T12:52:50.121Z,97421.61
2018-09-02T12:55:19.732Z,97426.15
2018-09-02T12:57:48.729Z,97438.21
2018-09-02T13:00:20.420Z,97436.20
2018-09-02T13:02:49.428Z,97438.56
2018-09-02T13:05:19.269Z,97437.06
2018-09-02T13:07:48.396Z,97431.61
2018-09-02T13:10:20.927Z,97437.42
2018-09-02T13:12:50.775Z,97445.71
2018-09-02T13:15:19.754Z,97444.23
2018-09-02T13:17:48.792Z,97451.67
2018-09-02T13:20:19.607Z,97445.88
2018-09-02T13:22:48.646Z,97425.77
2018-09-02T13:25:18.355Z,97413.34
2018-09-02T13:27:47.285Z,97410.53
2018-09-02T13:30:18.420Z,97392.42
2018-09-02T13:32:48.351Z,97389.25
2018-09-02T13:35:19.031Z,97393.66
2018-09-02T13:37:47.957Z,97384.51
2018-09-02T13:40:19.209Z,97394.81
2018-09-02T13:42:48.452Z,97400.30
2018-09-02T13:45:17.554Z,97427.53
2018-09-02T13:47:46.544Z,97433.14
2018-09-02T13:50:16.505Z,97454.80
2018-09-02T13:52:46.617Z,97447.64
2018-09-02T13:55:17.587Z,97447.28
2018-09-02T13:57:48.235Z,97445.86
2018-09-02T14:00:20.651Z,97436.79
2018-09-02T14:02:49.601Z,97433.88
2018-09-02T14:05:21.879Z,97436.08
2018-09-02T14:07:52.544Z,97436.11
2018-09-02T14:10:23.261Z,97433.40
2018-09-02T14:12:52.327Z,97442.02
2018-09-02T14:15:23.153Z,97431.31
2018-09-02T14:17:52.254Z,97424.50
2018-09-02T14:20:24.692Z,97423.48
2018-09-02T14:22:57.088Z,97422.28
2018-09-02T14:25:27.947Z,97423.22
2018-09-02T14:27:59.410Z,97415.56
2018-09-02T14:30:28.620Z,97406.08
2018-09-02T14:32:58.010Z,97409.50
2018-09-02T14:35:33.930Z,97396.11
2018-09-02T14:38:03.523Z,97389.92
2018-09-02T14:40:35.092Z,97391.62
2018-09-02T14:43:04.484Z,97384.06
2018-09-02T14:45:34.990Z,97380.08
2018-09-02T14:48:04.291Z,97380.54
2018-09-02T14:50:34.559Z,97371.21
2018-09-02T14:53:07.544Z,97381.91
2018-09-02T14:55:36.629Z,97383.52
2018-09-02T14:58:06.894Z,97381.30
2018-09-02T15:00:36.574Z,97373.92
2018-09-02T15:03:06.224Z,97389.59
2018-09-02T15:08:46.135Z,97388.78
2018-09-02T15:11:15.299Z,97383.28
2018-09-02T15:13:44.995Z,97391.95
2018-09-02T15:16:14.365Z,97390.89
2018-09-02T15:18:43.997Z,97391.16
2018-09-02T15:21:14.003Z,97397.17
2018-09-02T15:23:43.509Z,97404.14
2018-09-02T15:26:12.947Z,97411.34
2018-09-02T15:28:42.237Z,97391.20
2018-09-02T15:31:11.596Z,97408.84
2018-09-02T15:33:40.748Z,97402.91
2018-09-02T15:36:09.944Z,97414.38
2018-09-02T15:38:40.009Z,97419.41
2018-09-02T15:41:09.019Z,97420.73
2018-09-02T15:43:37.997Z,97423.06
2018-09-02T15:46:07.230Z,97420.97
2018-09-02T15:48:36.330Z,97429.00
2018-09-02T15:51:05.459Z,97424.81
2018-09-02T15:53:37.923Z,97420.27
2018-09-02T15:56:07.400Z,97417.92
2018-09-02T15:58:36.466Z,97420.22
2018-09-02T16:01:05.902Z,97423.21
2018-09-02T16:03:34.914Z,97433.47
2018-09-02T16:06:03.916Z,97427.58
2018-09-02T16:08:32.831Z,97423.95
2018-09-02T16:11:01.998Z,97423.45
2018-09-02T16:13:31.003Z,97426.48
2018-09-02T16:16:00.830Z,97419.28
2018-09-02T16:18:29.797Z,97412.73
2018-09-02T16:20:58.855Z,97412.70
2018-09-02T16:23:27.800Z,97407.71
2018-09-02T16:25:56.987Z,97409.44
2018-09-02T16:28:26.026Z,97416.06
2018-09-02T16:31:01.087Z,97411.52
2018-09-02T16:33:30.042Z,97413.72
2018-09-02T16:35:59.144Z,97403.36
2018-09-02T16:38:28.063Z,97405.24
2018-09-02T16:40:57.256Z,97399.89
2018-09-02T16:43:26.180Z,97402.55
2018-09-02T16:45:55.145Z,97402.40
2018-09-02T16:48:25.243Z,97411.13
2018-09-02T16:50:54.196Z,97409.46
2018-09-02T16:53:23.157Z,97407.66
2018-09-02T16:55:52.278Z,97409.63
2018-09-02T16:58:22.388Z,97409.66
2018-09-02T17:00:51.377Z,97415.28
2018-09-02T17:03:21.234Z,97416.05
2018-09-02T17:05:51.130Z,97406.69
2018-09-02T17:08:20.563Z,97401.98
2018-09-02T17:10:50.052Z,97395.80
2018-09-02T17:13:19.245Z,97395.37
2018-09-02T17:15:48.210Z,97402.02
2018-09-02T17:18:17.278Z,97376.52
2018-09-02T17:20:49.279Z,97400.64
2018-09-02T17:23:18.577Z,97400.30
2018-09-02T17:25:48.207Z,97410.58
2018-09-02T17:28:17.620Z,97405.66
2018-09-02T17:30:47.063Z,97405.95
2018-09-02T17:33:16.906Z,97406.06
2018-09-02T17:35:46.467Z,97407.02
2018-09-02T17:38:15.823Z,97405.06
2018-09-02T17:40:45.119Z,97411.58
2018-09-02T17:43:14.566Z,97419.36
2018-09-02T17:45:44.707Z,97415.83
2018-09-02T17:48:13.817Z,97420.44
2018-09-02T17:50:43.008Z,97418.63
2018-09-02T17:53:11.996Z,97421.28
2018-09-02T17:55:40.947Z,97424.36
2018-09-02T17:58:09.924Z,97420.01
2018-09-02T18:00:47.581Z,97422.06
2018-09-02T18:03:16.818Z,97429.28
2018-09-02T18:05:46.111Z,97442.08
2018-09-02T18:08:15.506Z,97441.16
2018-09-02T18:10:51.480Z,97443.55
2018-09-02T18:13:20.431Z,97449.77
2018-09-02T18:15:49.445Z,97451.99
2018-09-02T18:18:18.404Z,97452.95
2018-09-02T18:20:47.871Z,97453.69
2018-09-02T18:23:17.235Z,97460.78
2018-09-02T18:25:46.867Z,97466.04
2018-09-02T18:28:20.782Z,97465.83
2018-09-02T18:30:50.186Z,97469.69
2018-09-02T18:33:19.238Z,97470.52
2018-09-02T18:35:48.303Z,97466.50
2018-09-02T18:38:17.391Z,97468.58
2018-09-02T18:40:48.220Z,97477.27
2018-09-02T18:43:20.608Z,97486.47
2018-09-02T18:45:50.721Z,97482.72
2018-09-02T18:48:20.059Z,97497.70
2018-09-02T18:50:49.386Z,97492.78
2018-09-02T18:53:18.578Z,97500.70
2018-09-02T18:55:47.731Z,97505.88
2018-09-02T18:58:17.124Z,97508.41
2018-09-02T19:00:46.309Z,97513.10
2018-09-02T19:03:15.724Z,97521.30
2018-09-02T19:05:44.984Z,97520.39
2018-09-02T19:08:14.754Z,97520.66
2018-09-02T19:10:43.978Z,97527.14
2018-09-02T19:13:13.095Z,97527.92
2018-09-02T19:15:42.137Z,97528.11
2018-09-02T19:18:11.617Z,97522.50
2018-09-02T19:20:41.208Z,97517.69
2018-09-02T19:23:10.586Z,97518.45
2018-09-02T19:25:39.804Z,97512.11
2018-09-02T19:28:09.172Z,97513.52
2018-09-02T19:30:38.526Z,97501.05
2018-09-02T19:33:07.829Z,97508.03
2018-09-02T19:35:37.153Z,97492.23
2018-09-02T19:38:06.380Z,97504.64
2018-09-02T19:40:35.754Z,97501.38
2018-09-02T19:43:05.807Z,97502.30
2018-09-02T19:45:35.943Z,97505.56
2018-09-02T19:48:05.257Z,97500.60
2018-09-02T19:50:37.249Z,97493.79
2018-09-02T19:53:06.577Z,97493.70
2018-09-02T19:55:36.820Z,97490.42
2018-09-02T19:58:07.760Z,97489.30
2018-09-02T20:00:37.176Z,97490.00
2018-09-02T20:03:06.544Z,97493.36
2018-09-02T20:05:36.693Z,97490.22
2018-09-02T20:08:06.128Z,97497.31
2018-09-02T20:10:35.622Z,97502.41
2018-09-02T20:13:04.926Z,97509.84
2018-09-02T20:15:34.231Z,97512.05
2018-09-02T20:18:03.407Z,97511.88
2018-09-02T20:20:32.789Z,97505.38
2018-09-02T20:23:04.925Z,97506.41
2018-09-02T20:25:34.174Z,97494.59
2018-09-02T20:28:04.199Z,97489.27
2018-09-02T20:30:33.267Z,97494.05
2018-09-02T20:33:03.138Z,97498.09
2018-09-02T20:35:32.215Z,97499.66
2018-09-02T20:38:01.219Z,97504.42
2018-09-02T20:40:31.720Z,97501.61
2018-09-02T20:43:01.916Z,97500.33
2018-09-02T20:45:31.256Z,97498.20
2018-09-02T20:48:01.512Z,97498.81
2018-09-02T20:50:30.679Z,97494.02
2018-09-02T20:52:59.892Z,97499.17
2018-09-02T20:55:29.128Z,97498.38
2018-09-02T20:57:58.399Z,97505.97
2018-09-02T21:00:27.747Z,97498.09
2018-09-02T21:02:56.989Z,97501.08
2018-09-02T21:05:26.255Z,97497.55
2018-09-02T21:07:55.351Z,97498.12
2018-09-02T21:10:24.449Z,97504.59
2018-09-02T21:12:53.779Z,97500.52
2018-09-02T21:15:23.536Z,97495.63
2018-09-02T21:17:52.615Z,97495.39
2018-09-02T21:20:22.917Z,97487.24
2018-09-02T21:22:51.984Z,97484.83
2018-09-02T21:25:20.963Z,97486.98
2018-09-02T21:27:50.101Z,97487.52
2018-09-02T21:30:21.560Z,97480.48
2018-09-02T21:32:50.717Z,97475.86
2018-09-02T21:35:21.858Z,97471.24
2018-09-02T21:37:50.890Z,97476.65
2018-09-02T21:40:22.083Z,97476.65
2018-09-02T21:42:51.203Z,97474.51
2018-09-02T21:45:23.157Z,97472.33
2018-09-02T21:47:52.443Z,97461.48
2018-09-02T21:50:22.923Z,97470.45
2018-09-02T21:52:59.495Z,97470.98
2018-09-02T21:55:28.700Z,97469.61
2018-09-02T21:57:58.113Z,97468.80
2018-09-02T22:00:42.813Z,97467.17
2018-09-02T22:03:14.175Z,97464.73
2018-09-02T22:05:44.507Z,97469.36
2018-09-02T22:08:13.880Z,97465.53
2018-09-02T22:10:43.260Z,97470.17
2018-09-02T22:13:12.652Z,97466.11
2018-09-02T22:15:42.841Z,97465.53
2018-09-02T22:18:12.268Z,97462.05
2018-09-02T22:20:43.098Z,97465.48
2018-09-02T22:23:12.633Z,97460.33
2018-09-02T22:25:42.289Z,97468.73
2018-09-02T22:28:11.820Z,97464.70
2018-09-02T22:30:41.502Z,97460.66
2018-09-02T22:33:10.953Z,97463.36
2018-09-02T22:35:40.339Z,97460.12
2018-09-02T22:38:09.690Z,97463.41
2018-09-02T22:40:38.942Z,97460.38
2018-09-02T22:43:08.427Z,97463.67
2018-09-02T22:45:44.303Z,97462.58
2018-09-02T22:48:14.222Z,97466.86
2018-09-02T23:00:52.229Z,97461.21
2018-09-02T23:03:21.504Z,97459.88
2018-09-02T23:05:50.701Z,97450.86
2018-09-02T23:08:19.900Z,97455.77
2018-09-02T23:10:49.157Z,97455.52
2018-09-02T23:13:18.292Z,97459.05
2018-09-02T23:15:47.530Z,97451.72
2018-09-02T23:18:16.799Z,97458.23
2018-09-02T23:20:46.618Z,97448.75
2018-09-02T23:23:15.991Z,97450.91
2018-09-02T23:25:45.480Z,97452.53
2018-09-02T23:28:14.685Z,97444.68
2018-09-02T23:30:49.197Z,97446.84
2018-09-02T23:33:18.498Z,97449.53
2018-09-02T23:35:47.784Z,97447.37
2018-09-02T23:38:17.000Z,97449.80
2018-09-02T23:40:46.275Z,97453.08
2018-09-02T23:43:15.599Z,97460.67
2018-09-02T23:45:44.972Z,97454.98
2018-09-02T23:48:14.269Z,97458.23
2018-09-02T23:50:44.615Z,97458.21
2018-09-02T23:53:13.946Z,97453.33
2018-09-02T23:55:43.240Z,97450.11
2018-09-02T23:58:12.590Z,97453.36
